Terminal Aerodrome Forecast
Issued by NWS Spokane, WA

Home | Current Version | Previous Version | Text Only | Print | Product List | Glossary On
Versions: 1 2 3 4 5 6 7 8 9 10 11 12 13 14 15 16 17 18 19 20 21 22 23 24 25 26 27 28 29 30 31 32 33 34 35 36 37 38 39 40 41 42 43 44 45 46 47 48 49 50
000
FTUS46 KOTX 260539
TAFGEG
TAF
KGEG 260539Z 2606/2706 19010KT P6SM BKN040 OVC100
     FM260630 20008KT 5SM -SN BKN028 OVC050
     FM260900 21008KT 1 1/2SM -SN SCT008 OVC015
      TEMPO 2613/2616 1/2SM SN OVC010
     FM262100 19006KT 3SM -SN SCT008 OVC015
     FM270200 04005KT 3SM -SN BKN009 OVC019=

USA.gov is the U.S. government's official web portal to all federal, state and local government web resources and services.